createdAt,value
2018-04-07T00:00:35.142Z,8.41
2018-04-07T00:01:35.122Z,8.44
2018-04-07T00:02:35.099Z,8.38
2018-04-07T00:03:35.080Z,8.44
2018-04-07T00:04:35.060Z,8.36
2018-04-07T00:05:35.045Z,8.37
2018-04-07T00:06:35.027Z,8.38
2018-04-07T00:07:35.011Z,8.37
2018-04-07T00:08:34.991Z,8.36
2018-04-07T00:09:34.967Z,8.36
2018-04-07T00:10:34.951Z,8.37
2018-04-07T00:11:34.929Z,8.36
2018-04-07T00:12:34.925Z,8.41
2018-04-07T00:13:34.891Z,8.30
2018-04-07T00:14:34.871Z,8.30
2018-04-07T00:15:34.862Z,8.34
2018-04-07T00:16:34.833Z,8.33
2018-04-07T00:17:34.823Z,8.30
2018-04-07T00:18:34.794Z,8.22
2018-04-07T00:19:34.778Z,8.30
2018-04-07T00:20:34.753Z,8.23
2018-04-07T00:21:34.751Z,8.22
2018-04-07T00:22:34.720Z,8.19
2018-04-07T00:23:34.702Z,8.22
2018-04-07T00:24:34.676Z,8.22
2018-04-07T00:25:34.657Z,8.25
2018-04-07T00:26:34.640Z,8.25
2018-04-07T00:27:34.618Z,8.22
2018-04-07T00:28:34.605Z,8.19
2018-04-07T00:29:34.588Z,8.20
2018-04-07T00:30:34.568Z,8.08
2018-04-07T00:31:34.544Z,8.23
2018-04-07T00:32:34.530Z,8.20
2018-04-07T00:33:34.510Z,8.28
2018-04-07T00:34:34.485Z,8.28
2018-04-07T00:35:34.468Z,8.11
2018-04-07T00:36:34.448Z,8.10
2018-04-07T00:37:34.442Z,8.10
2018-04-07T00:38:34.410Z,8.10
2018-04-07T00:39:34.397Z,8.19
2018-04-07T00:40:34.370Z,8.15
2018-04-07T00:41:34.349Z,8.28
2018-04-07T00:42:34.330Z,8.11
2018-04-07T00:43:34.319Z,8.15
2018-04-07T00:44:34.295Z,8.11
2018-04-07T00:45:34.279Z,8.10
2018-04-07T00:46:34.255Z,8.05
2018-04-07T00:47:34.241Z,8.10
2018-04-07T00:48:34.227Z,7.98
2018-04-07T00:49:34.201Z,8.07
2018-04-07T00:50:34.176Z,8.07
2018-04-07T00:51:34.160Z,8.05
2018-04-07T00:52:34.144Z,8.02
2018-04-07T00:53:34.120Z,8.11
2018-04-07T00:54:34.100Z,8.08
2018-04-07T00:55:34.084Z,8.08
2018-04-07T00:56:34.059Z,8.08
2018-04-07T00:57:34.040Z,8.00
2018-04-07T00:58:34.027Z,8.01
2018-04-07T00:59:34.003Z,8.08
2018-04-07T01:00:33.986Z,8.05
2018-04-07T01:01:33.966Z,8.07
2018-04-07T01:02:33.947Z,8.15
2018-04-07T01:03:33.927Z,8.02
2018-04-07T01:04:33.916Z,8.00
2018-04-07T01:05:33.895Z,7.87
2018-04-07T01:06:33.869Z,7.89
2018-04-07T01:07:33.853Z,7.63
2018-04-07T01:08:33.831Z,7.63
2018-04-07T01:09:33.810Z,7.67
2018-04-07T01:10:33.796Z,7.61
2018-04-07T01:11:33.781Z,7.64
2018-04-07T01:12:33.757Z,7.68
2018-04-07T01:13:33.737Z,7.64
2018-04-07T01:14:33.718Z,7.67
2018-04-07T01:15:33.697Z,7.67
2018-04-07T01:16:33.681Z,7.58
2018-04-07T01:17:33.656Z,7.69
2018-04-07T01:18:33.642Z,7.71
2018-04-07T01:19:33.623Z,7.71
2018-04-07T01:20:33.599Z,7.68
2018-04-07T01:21:33.581Z,7.64
2018-04-07T01:22:33.560Z,7.72
2018-04-07T01:23:33.544Z,7.74
2018-04-07T01:24:33.520Z,7.64
2018-04-07T01:25:33.501Z,7.64
2018-04-07T01:26:33.486Z,7.63
2018-04-07T01:27:33.464Z,7.64
2018-04-07T01:28:33.454Z,7.50
2018-04-07T01:29:33.425Z,7.43
2018-04-07T01:30:33.409Z,7.50
2018-04-07T01:31:33.389Z,7.52
2018-04-07T01:32:33.368Z,7.37
2018-04-07T01:33:33.352Z,7.40
2018-04-07T01:34:33.330Z,7.40
2018-04-07T01:35:33.322Z,7.35
2018-04-07T01:36:33.289Z,7.35
2018-04-07T01:37:33.269Z,7.37
2018-04-07T01:38:33.255Z,7.35
2018-04-07T01:39:33.234Z,7.32
2018-04-07T01:40:33.210Z,7.37
2018-04-07T01:41:33.193Z,7.40
2018-04-07T01:42:33.181Z,7.42
2018-04-07T01:43:33.155Z,7.45
2018-04-07T01:44:33.140Z,7.43
2018-04-07T01:45:33.116Z,7.43
2018-04-07T01:46:33.100Z,7.49
2018-04-07T01:47:33.080Z,7.52
2018-04-07T01:48:33.058Z,7.46
2018-04-07T01:49:33.040Z,7.46
2018-04-07T01:50:33.021Z,7.40
2018-04-07T01:51:33.000Z,7.34
2018-04-07T01:52:33.024Z,7.23
2018-04-07T01:53:32.960Z,7.12
2018-04-07T01:54:32.941Z,6.92
2018-04-07T01:55:32.921Z,6.77
2018-04-07T01:56:32.904Z,6.76
2018-04-07T01:57:32.886Z,6.76
2018-04-07T01:58:32.869Z,6.76
2018-04-07T01:59:32.848Z,6.77
2018-04-07T02:00:32.831Z,6.87
2018-04-07T02:01:32.813Z,6.85
2018-04-07T02:02:32.793Z,6.88
2018-04-07T02:03:32.769Z,6.95
2018-04-07T02:04:32.748Z,6.95
2018-04-07T02:05:32.730Z,6.94
2018-04-07T02:06:32.711Z,6.92
2018-04-07T02:07:32.688Z,7.09
2018-04-07T02:08:32.674Z,7.06
2018-04-07T02:09:32.650Z,7.05
2018-04-07T02:10:32.631Z,7.07
2018-04-07T02:11:32.621Z,7.05
2018-04-07T02:12:32.594Z,7.15
2018-04-07T02:13:32.575Z,7.12
2018-04-07T02:14:32.554Z,7.06
2018-04-07T02:15:32.540Z,7.09
2018-04-07T02:16:32.518Z,7.07
2018-04-07T02:17:32.494Z,7.09
2018-04-07T02:18:32.472Z,7.06
2018-04-07T02:19:32.458Z,6.94
2018-04-07T02:20:32.436Z,6.98
2018-04-07T02:21:32.414Z,6.94
2018-04-07T02:22:32.395Z,6.95
2018-04-07T02:23:32.374Z,7.09
2018-04-07T02:24:32.356Z,7.09
2018-04-07T02:25:32.341Z,7.10
2018-04-07T02:26:32.317Z,7.03
2018-04-07T02:27:32.299Z,7.03
2018-04-07T02:28:32.277Z,7.21
2018-04-07T02:29:32.260Z,7.12
2018-04-07T02:30:32.249Z,7.16
2018-04-07T02:31:32.221Z,7.05
2018-04-07T02:32:32.199Z,7.07
2018-04-07T02:33:32.186Z,7.07
2018-04-07T02:34:32.161Z,7.03
2018-04-07T02:35:32.141Z,7.07
2018-04-07T02:36:32.134Z,7.16
2018-04-07T02:37:32.102Z,7.15
2018-04-07T02:38:32.088Z,7.07
2018-04-07T02:39:32.076Z,7.17
2018-04-07T02:40:32.050Z,7.16
2018-04-07T02:41:32.025Z,7.21
2018-04-07T02:42:32.066Z,7.13
2018-04-07T02:43:31.984Z,7.15
2018-04-07T02:44:31.962Z,7.09
2018-04-07T02:45:31.947Z,7.07
2018-04-07T02:46:31.936Z,6.99
2018-04-07T02:47:31.907Z,7.07
2018-04-07T02:48:31.898Z,7.09
2018-04-07T02:49:31.866Z,7.06
2018-04-07T02:50:31.850Z,7.05
2018-04-07T02:51:31.825Z,7.10
2018-04-07T02:52:31.815Z,7.07
2018-04-07T02:53:31.787Z,7.09
2018-04-07T02:54:31.767Z,7.03
2018-04-07T02:55:31.750Z,7.06
2018-04-07T02:56:31.728Z,7.07
2018-04-07T02:57:31.707Z,7.05
2018-04-07T02:58:31.690Z,7.03
2018-04-07T02:59:31.674Z,6.97
2018-04-07T03:00:31.650Z,6.94
2018-04-07T03:01:31.630Z,7.07
2018-04-07T03:02:31.615Z,6.95
2018-04-07T03:03:31.592Z,7.09
2018-04-07T03:04:31.572Z,7.10
2018-04-07T03:05:31.564Z,7.09
2018-04-07T03:06:31.534Z,7.05
2018-04-07T03:07:31.520Z,7.03
2018-04-07T03:08:31.509Z,7.10
2018-04-07T03:09:31.479Z,7.10
2018-04-07T03:10:31.456Z,7.10
2018-04-07T03:11:31.437Z,7.06
2018-04-07T03:12:31.416Z,7.02
2018-04-07T03:13:31.394Z,7.03
2018-04-07T03:14:31.375Z,7.09
2018-04-07T03:15:31.358Z,7.03
2018-04-07T03:16:31.339Z,7.07
2018-04-07T03:17:31.329Z,6.92
2018-04-07T03:18:31.296Z,6.95
2018-04-07T03:19:31.279Z,6.94
2018-04-07T03:20:31.261Z,6.79
2018-04-07T03:21:31.239Z,6.84
2018-04-07T03:22:31.217Z,6.87
2018-04-07T03:23:31.201Z,6.89
2018-04-07T03:24:31.181Z,6.87
2018-04-07T03:25:31.158Z,6.77
2018-04-07T03:26:31.139Z,6.85
2018-04-07T03:27:31.119Z,6.84
2018-04-07T03:28:31.100Z,6.94
2018-04-07T03:29:31.078Z,6.95
2018-04-07T03:30:31.062Z,6.92
2018-04-07T03:31:31.044Z,6.97
2018-04-07T03:32:31.020Z,6.94
2018-04-07T03:33:31.006Z,6.92
2018-04-07T03:34:30.980Z,7.02
2018-04-07T03:35:30.964Z,6.99
2018-04-07T03:36:30.943Z,7.02
2018-04-07T03:37:30.924Z,6.95
2018-04-07T03:38:30.914Z,6.95
2018-04-07T03:39:30.883Z,6.94
2018-04-07T03:40:30.865Z,7.02
2018-04-07T03:41:30.843Z,6.89
2018-04-07T03:42:30.824Z,6.92
2018-04-07T03:43:30.802Z,6.84
2018-04-07T03:44:30.790Z,6.80
2018-04-07T03:45:30.769Z,6.80
2018-04-07T03:46:30.748Z,6.74
2018-04-07T03:47:30.726Z,6.74
2018-04-07T03:48:30.710Z,6.69
2018-04-07T03:49:30.691Z,6.64
2018-04-07T03:50:30.665Z,6.66
2018-04-07T03:51:30.647Z,6.62
2018-04-07T03:52:30.629Z,6.62
2018-04-07T03:53:30.616Z,6.66
2018-04-07T03:54:30.590Z,6.62
2018-04-07T03:55:30.568Z,6.61
2018-04-07T03:56:30.551Z,6.64
2018-04-07T03:57:30.529Z,6.62
2018-04-07T03:58:30.511Z,6.64
2018-04-07T03:59:30.496Z,6.64
2018-04-07T04:00:30.470Z,6.66
2018-04-07T04:01:30.448Z,6.66
2018-04-07T04:02:30.432Z,6.76
2018-04-07T04:03:30.411Z,6.66
2018-04-07T04:04:30.395Z,6.67
2018-04-07T04:05:30.372Z,6.66
2018-04-07T04:06:30.351Z,6.59
2018-04-07T04:07:30.335Z,6.67
2018-04-07T04:08:30.311Z,6.64
2018-04-07T04:09:30.298Z,6.64
2018-04-07T04:10:30.270Z,6.58
2018-04-07T04:11:30.251Z,6.56
2018-04-07T04:12:30.231Z,6.43
2018-04-07T04:13:30.212Z,6.34
2018-04-07T04:14:30.190Z,6.22
2018-04-07T04:15:30.174Z,6.19
2018-04-07T04:16:30.149Z,6.04
2018-04-07T04:17:30.130Z,6.11
2018-04-07T04:18:30.110Z,6.09
2018-04-07T04:19:30.091Z,6.04
2018-04-07T04:20:30.071Z,6.03
2018-04-07T04:21:30.050Z,6.03
2018-04-07T04:22:30.032Z,6.03
2018-04-07T04:23:30.015Z,6.03
2018-04-07T04:24:29.990Z,5.93
2018-04-07T04:25:29.971Z,5.93
2018-04-07T04:26:29.956Z,6.04
2018-04-07T04:27:29.935Z,6.06
2018-04-07T04:28:29.911Z,6.01
2018-04-07T04:29:29.896Z,6.08
2018-04-07T04:30:29.874Z,6.08
2018-04-07T04:31:29.859Z,6.04
2018-04-07T04:32:29.829Z,6.06
2018-04-07T04:33:29.810Z,6.09
2018-04-07T04:34:29.793Z,6.09
2018-04-07T04:35:29.774Z,6.25
2018-04-07T04:36:29.837Z,6.17
2018-04-07T04:37:29.731Z,6.22
2018-04-07T04:38:29.716Z,6.11
2018-04-07T04:39:29.700Z,6.22
2018-04-07T04:40:29.675Z,6.17
2018-04-07T04:41:29.651Z,6.28
2018-04-07T04:42:29.632Z,6.30
2018-04-07T04:43:29.618Z,6.22
2018-04-07T04:44:29.594Z,6.28
2018-04-07T04:45:29.570Z,6.33
2018-04-07T04:46:29.551Z,6.31
2018-04-07T04:47:29.532Z,6.30
2018-04-07T04:48:29.517Z,6.30
2018-04-07T04:49:29.490Z,6.38
2018-04-07T04:50:29.473Z,6.41
2018-04-07T04:51:29.452Z,6.40
2018-04-07T04:52:29.430Z,6.43
2018-04-07T04:53:29.412Z,6.41
2018-04-07T04:54:29.396Z,6.46
2018-04-07T04:55:29.372Z,6.46
2018-04-07T04:56:29.355Z,6.48
2018-04-07T04:57:29.337Z,6.51
2018-04-07T04:58:29.317Z,6.51
2018-04-07T04:59:29.299Z,6.54
2018-04-07T05:00:29.278Z,6.61
2018-04-07T05:01:29.250Z,6.59
2018-04-07T05:02:29.238Z,6.59
2018-04-07T05:03:29.223Z,6.61
2018-04-07T05:04:29.199Z,6.58
2018-04-07T05:05:29.175Z,6.56
2018-04-07T05:06:29.157Z,6.64
2018-04-07T05:07:29.135Z,6.61
2018-04-07T05:08:29.113Z,6.71
2018-04-07T05:09:29.102Z,6.66
2018-04-07T05:10:29.071Z,6.67
2018-04-07T05:11:29.053Z,6.62
2018-04-07T05:12:29.033Z,6.67
2018-04-07T05:13:29.010Z,6.77
2018-04-07T05:14:28.992Z,6.71
2018-04-07T05:15:28.974Z,6.66
2018-04-07T05:16:28.952Z,6.69
2018-04-07T05:17:28.934Z,6.67
2018-04-07T05:18:28.910Z,6.61
2018-04-07T05:19:28.898Z,6.80
2018-04-07T05:20:28.871Z,6.73
2018-04-07T05:21:28.852Z,6.74
2018-04-07T05:22:28.834Z,6.73
2018-04-07T05:23:28.819Z,6.74
2018-04-07T05:24:28.790Z,6.73
2018-04-07T05:25:28.774Z,6.74
2018-04-07T05:26:28.760Z,6.73
2018-04-07T05:27:28.732Z,6.76
2018-04-07T05:28:28.710Z,6.85
2018-04-07T05:29:28.692Z,6.79
2018-04-07T05:30:28.676Z,6.80
2018-04-07T05:31:28.653Z,6.81
2018-04-07T05:32:28.638Z,6.85
2018-04-07T05:33:28.613Z,6.80
2018-04-07T05:34:28.598Z,6.81
2018-04-07T05:35:28.572Z,6.88
2018-04-07T05:36:28.551Z,6.84
2018-04-07T05:37:28.537Z,6.84
2018-04-07T05:38:28.515Z,6.92
2018-04-07T05:39:28.499Z,6.80
2018-04-07T05:40:28.476Z,6.89
2018-04-07T05:41:28.455Z,6.95
2018-04-07T05:42:28.438Z,6.79
2018-04-07T05:43:28.412Z,6.88
2018-04-07T05:44:28.398Z,7.02
2018-04-07T05:45:28.379Z,6.97
2018-04-07T05:46:28.366Z,7.05
2018-04-07T05:47:28.335Z,6.92
2018-04-07T05:48:28.311Z,7.02
2018-04-07T05:49:28.295Z,6.92
2018-04-07T05:50:28.273Z,7.06
2018-04-07T05:51:28.254Z,7.03
2018-04-07T05:52:28.235Z,7.07
2018-04-07T05:53:28.220Z,7.06
2018-04-07T05:54:28.193Z,7.16
2018-04-07T05:55:28.182Z,7.12
2018-04-07T05:56:28.155Z,7.16
2018-04-07T05:57:28.140Z,7.13
2018-04-07T05:58:28.116Z,7.13
2018-04-07T05:59:28.096Z,7.25
2018-04-07T06:00:28.074Z,7.24
2018-04-07T06:01:28.059Z,7.30
2018-04-07T06:02:28.036Z,7.23
2018-04-07T06:03:28.019Z,7.21
2018-04-07T06:04:28.001Z,7.20
2018-04-07T06:05:27.981Z,7.31
2018-04-07T06:06:27.963Z,7.42
2018-04-07T06:07:27.941Z,7.39
2018-04-07T06:08:27.919Z,7.43
2018-04-07T06:09:27.901Z,7.46
2018-04-07T06:10:27.881Z,7.52
2018-04-07T06:11:27.859Z,7.45
2018-04-07T06:12:27.854Z,7.61
2018-04-07T06:13:27.820Z,7.60
2018-04-07T06:14:27.802Z,7.69
2018-04-07T06:15:27.779Z,7.61
2018-04-07T06:16:27.756Z,7.67
2018-04-07T06:17:27.747Z,7.71
2018-04-07T06:18:27.724Z,7.82
2018-04-07T06:19:27.708Z,7.85
2018-04-07T06:20:27.680Z,7.95
2018-04-07T06:21:27.661Z,7.95
2018-04-07T06:22:27.641Z,7.97
2018-04-07T06:23:27.619Z,7.97
2018-04-07T06:24:27.601Z,7.97
2018-04-07T06:25:27.579Z,8.02
2018-04-07T06:26:27.562Z,8.07
2018-04-07T06:27:27.543Z,8.12
2018-04-07T06:28:27.523Z,8.07
2018-04-07T06:29:27.505Z,8.23
2018-04-07T06:30:27.480Z,8.25
2018-04-07T06:31:27.466Z,8.33
2018-04-07T06:32:27.439Z,8.36
2018-04-07T06:33:27.427Z,8.41
2018-04-07T06:34:27.402Z,8.41
2018-04-07T06:35:27.387Z,8.58
2018-04-07T06:36:27.362Z,8.63
2018-04-07T06:37:27.348Z,8.74
2018-04-07T06:38:27.323Z,8.76
2018-04-07T06:39:27.314Z,8.71
2018-04-07T06:40:27.283Z,8.79
2018-04-07T06:41:27.262Z,8.86
2018-04-07T06:42:27.250Z,8.83
2018-04-07T06:43:27.257Z,8.89
2018-04-07T06:44:27.209Z,8.92
2018-04-07T06:45:27.189Z,8.89
2018-04-07T06:46:27.175Z,9.04
2018-04-07T06:47:27.153Z,9.02
2018-04-07T06:48:27.131Z,9.14
2018-04-07T06:49:27.118Z,9.15
2018-04-07T06:50:27.090Z,9.21
2018-04-07T06:51:27.071Z,9.11
2018-04-07T06:52:27.059Z,9.15
2018-04-07T06:53:27.041Z,9.26
2018-04-07T06:54:27.010Z,9.24
2018-04-07T06:55:26.990Z,9.33
2018-04-07T06:56:26.974Z,9.35
2018-04-07T06:57:26.950Z,9.38
2018-04-07T06:58:26.930Z,9.43
2018-04-07T06:59:26.920Z,9.54
2018-04-07T07:00:26.898Z,9.50
2018-04-07T07:01:26.884Z,9.56
2018-04-07T07:02:26.859Z,9.58
2018-04-07T07:03:26.838Z,9.57
2018-04-07T07:04:26.817Z,9.58
2018-04-07T07:05:26.800Z,9.60
2018-04-07T07:06:26.780Z,9.68
2018-04-07T07:07:26.761Z,9.61
2018-04-07T07:08:26.737Z,9.72
2018-04-07T07:09:26.720Z,9.71
2018-04-07T07:10:26.701Z,9.74
2018-04-07T07:11:26.680Z,9.84
2018-04-07T07:12:26.661Z,9.89
2018-04-07T07:13:26.644Z,9.89
2018-04-07T07:14:26.622Z,9.87
2018-04-07T07:15:26.606Z,9.84
2018-04-07T07:16:26.587Z,9.87
2018-04-07T07:17:26.563Z,9.90
2018-04-07T07:18:26.552Z,9.89
2018-04-07T07:19:26.530Z,9.90
2018-04-07T07:20:26.508Z,9.87
2018-04-07T07:21:26.486Z,9.91
2018-04-07T07:22:26.473Z,9.91
2018-04-07T07:23:26.452Z,9.90
2018-04-07T07:24:26.428Z,9.93
2018-04-07T07:25:26.412Z,9.97
2018-04-07T07:26:26.405Z,9.91
2018-04-07T07:27:26.374Z,10.01
2018-04-07T07:28:26.356Z,10.11
2018-04-07T07:29:26.336Z,10.14
2018-04-07T07:30:26.318Z,10.20
2018-04-07T07:31:26.314Z,10.26
2018-04-07T07:32:26.283Z,10.25
2018-04-07T07:33:26.261Z,10.38
2018-04-07T07:34:26.243Z,10.40
2018-04-07T07:35:26.221Z,10.53
2018-04-07T07:36:26.200Z,10.40
2018-04-07T07:37:26.179Z,10.40
2018-04-07T07:38:26.170Z,10.48
2018-04-07T07:39:26.141Z,10.53
2018-04-07T07:40:26.128Z,10.59
2018-04-07T07:41:26.108Z,10.68
2018-04-07T07:42:26.092Z,10.74
2018-04-07T07:43:26.071Z,10.73
2018-04-07T07:44:26.050Z,10.81
2018-04-07T07:45:26.029Z,10.85
2018-04-07T07:46:26.014Z,10.92
2018-04-07T07:47:26.006Z,10.94
2018-04-07T07:48:26.029Z,11.04
2018-04-07T07:49:25.958Z,11.02
2018-04-07T07:50:25.939Z,11.03
2018-04-07T07:51:25.918Z,11.09
2018-04-07T07:52:25.899Z,11.14
2018-04-07T07:53:25.891Z,11.17
2018-04-07T07:54:25.860Z,11.37
2018-04-07T07:55:25.849Z,11.36
2018-04-07T07:56:25.828Z,11.39
2018-04-07T07:57:25.806Z,11.37
2018-04-07T07:58:25.790Z,11.42
2018-04-07T07:59:25.769Z,11.33
2018-04-07T08:00:25.757Z,11.44
2018-04-07T08:01:25.730Z,11.43
2018-04-07T08:02:25.716Z,11.46
2018-04-07T08:03:25.693Z,11.40
2018-04-07T08:04:25.676Z,11.49
2018-04-07T08:05:25.670Z,11.54
2018-04-07T08:06:25.639Z,11.54
2018-04-07T08:07:25.619Z,11.78
2018-04-07T08:08:25.599Z,11.78
2018-04-07T08:09:25.616Z,11.78
2018-04-07T08:10:25.568Z,11.79
2018-04-07T08:11:25.552Z,11.88
2018-04-07T08:12:25.529Z,11.86
2018-04-07T08:13:25.510Z,12.05
2018-04-07T08:14:25.491Z,12.13
2018-04-07T08:15:25.480Z,12.21
2018-04-07T08:16:25.452Z,12.20
2018-04-07T08:17:25.436Z,12.17
2018-04-07T08:18:25.424Z,12.31
2018-04-07T08:19:25.404Z,12.34
2018-04-07T08:20:25.382Z,12.39
2018-04-07T08:21:25.364Z,12.39
2018-04-07T08:22:25.346Z,12.32
2018-04-07T08:23:25.334Z,12.41
2018-04-07T08:24:25.315Z,12.38
2018-04-07T08:25:25.295Z,12.46
2018-04-07T08:26:25.272Z,12.46
2018-04-07T08:27:25.265Z,12.49
2018-04-07T08:28:25.235Z,12.56
2018-04-07T08:29:25.224Z,12.64
2018-04-07T08:30:25.203Z,12.65
2018-04-07T08:31:25.184Z,12.57
2018-04-07T08:32:25.167Z,12.67
2018-04-07T08:33:25.143Z,12.72
2018-04-07T08:34:25.128Z,12.86
2018-04-07T08:35:25.113Z,12.86
2018-04-07T08:36:25.090Z,12.86
2018-04-07T08:37:25.078Z,12.96
2018-04-07T08:38:25.063Z,13.19
2018-04-07T08:39:25.105Z,13.12
2018-04-07T08:40:25.024Z,13.19
2018-04-07T08:41:25.000Z,13.23
2018-04-07T08:42:24.991Z,13.36
2018-04-07T08:43:24.975Z,13.41
2018-04-07T08:44:24.955Z,13.46
2018-04-07T08:45:24.936Z,13.54
2018-04-07T08:46:24.916Z,13.71
2018-04-07T08:47:24.905Z,13.78
2018-04-07T08:48:24.880Z,13.81
2018-04-07T08:49:24.867Z,13.92
2018-04-07T08:50:24.845Z,13.97
2018-04-07T08:51:24.836Z,14.10
2018-04-07T08:52:24.811Z,14.10
2018-04-07T08:53:24.811Z,14.20
2018-04-07T08:54:24.779Z,14.33
2018-04-07T08:55:24.758Z,14.42
2018-04-07T08:56:24.745Z,14.32
2018-04-07T08:57:24.725Z,14.29
2018-04-07T08:58:24.713Z,14.27
2018-04-07T08:59:24.690Z,14.37
2018-04-07T09:00:24.669Z,14.42
2018-04-07T09:01:24.651Z,14.55
2018-04-07T09:02:24.642Z,14.57
2018-04-07T09:03:24.631Z,14.58
2018-04-07T09:04:24.607Z,14.51
2018-04-07T09:05:24.594Z,14.52
2018-04-07T09:06:24.590Z,14.51
2018-04-07T09:07:24.549Z,14.72
2018-04-07T09:08:24.532Z,14.70
2018-04-07T09:09:24.515Z,14.78
2018-04-07T09:10:24.504Z,14.86
2018-04-07T09:11:24.486Z,14.91
2018-04-07T09:12:24.470Z,14.89
2018-04-07T09:13:24.449Z,15.01
2018-04-07T09:14:24.440Z,15.10
2018-04-07T09:15:24.415Z,15.07
2018-04-07T09:16:24.399Z,15.10
2018-04-07T09:17:24.392Z,15.34
2018-04-07T09:18:24.383Z,15.38
2018-04-07T09:19:24.389Z,15.47
2018-04-07T09:20:24.329Z,15.53
2018-04-07T09:21:24.319Z,15.50
2018-04-07T09:22:24.296Z,15.54
2018-04-07T09:23:24.280Z,15.59
2018-04-07T09:24:24.266Z,15.54
2018-04-07T09:25:24.258Z,15.69
2018-04-07T09:26:24.229Z,15.64
2018-04-07T09:27:24.213Z,15.71
2018-04-07T09:28:24.206Z,15.72
2018-04-07T09:29:24.178Z,15.71
2018-04-07T09:30:24.160Z,15.72
2018-04-07T09:31:25.698Z,15.69
2018-04-07T09:32:24.127Z,15.71
2018-04-07T09:33:24.118Z,15.72
2018-04-07T09:34:24.095Z,15.69
2018-04-07T09:35:24.081Z,15.67
2018-04-07T09:36:24.275Z,15.62
2018-04-07T09:37:24.050Z,15.65
2018-04-07T09:38:24.036Z,15.82
2018-04-07T09:39:24.022Z,15.92
2018-04-07T09:40:24.005Z,16.05
2018-04-07T09:41:23.981Z,16.11
2018-04-07T09:42:23.964Z,16.30
2018-04-07T09:43:23.953Z,16.41
2018-04-07T09:44:23.937Z,16.49
2018-04-07T09:45:23.919Z,16.52
2018-04-07T09:46:23.903Z,16.46
2018-04-07T09:47:23.887Z,16.43
2018-04-07T09:48:23.875Z,16.41
2018-04-07T09:49:23.864Z,16.49
2018-04-07T09:50:23.840Z,16.46
2018-04-07T09:51:23.820Z,16.61
2018-04-07T09:52:23.810Z,16.70
2018-04-07T09:53:23.791Z,16.73
2018-04-07T09:54:23.776Z,16.76
2018-04-07T09:55:23.759Z,16.93
2018-04-07T09:56:23.741Z,16.98
2018-04-07T09:57:23.733Z,16.98
2018-04-07T09:58:23.708Z,17.12
2018-04-07T09:59:23.697Z,17.14
2018-04-07T10:00:23.673Z,17.33
2018-04-07T10:01:23.658Z,17.33
2018-04-07T10:02:23.645Z,17.36
2018-04-07T10:03:23.639Z,17.12
2018-04-07T10:04:23.610Z,17.18
2018-04-07T10:05:23.604Z,17.21
2018-04-07T10:06:23.585Z,17.21
2018-04-07T10:07:23.567Z,17.34
2018-04-07T10:08:23.549Z,17.36
2018-04-07T10:09:23.539Z,17.52
2018-04-07T10:10:23.520Z,17.49
2018-04-07T10:11:23.500Z,17.52
2018-04-07T10:12:23.490Z,17.55
2018-04-07T10:13:23.474Z,17.68
2018-04-07T10:14:23.465Z,17.66
2018-04-07T10:15:23.440Z,17.74
2018-04-07T10:16:23.438Z,17.87
2018-04-07T10:17:23.409Z,17.90
2018-04-07T10:18:23.403Z,17.86
2018-04-07T10:19:23.380Z,17.81
2018-04-07T10:20:23.365Z,18.00
2018-04-07T10:21:23.347Z,17.99
2018-04-07T10:22:23.332Z,17.78
2018-04-07T10:23:23.318Z,17.93
2018-04-07T10:24:23.313Z,17.96
2018-04-07T10:25:23.285Z,18.07
2018-04-07T10:26:23.270Z,18.12
2018-04-07T10:27:23.259Z,18.20
2018-04-07T10:28:23.258Z,18.27
2018-04-07T10:29:23.227Z,18.27
2018-04-07T10:30:23.217Z,18.26
2018-04-07T10:31:23.196Z,18.36
2018-04-07T10:32:23.185Z,18.36
2018-04-07T10:33:23.173Z,18.50
2018-04-07T10:34:23.156Z,18.50
2018-04-07T10:35:23.139Z,18.57
2018-04-07T10:36:23.123Z,18.65
2018-04-07T10:37:23.109Z,18.66
2018-04-07T10:38:23.094Z,18.76
2018-04-07T10:39:23.085Z,18.92
2018-04-07T10:40:23.062Z,19.00
2018-04-07T10:41:23.049Z,18.98
2018-04-07T10:42:23.040Z,18.90
2018-04-07T10:43:23.021Z,18.78
2018-04-07T10:44:23.002Z,18.63
2018-04-07T10:45:22.988Z,18.72
2018-04-07T10:46:22.974Z,18.78
2018-04-07T10:47:22.962Z,18.85
2018-04-07T10:48:22.941Z,18.87
2018-04-07T10:49:22.927Z,19.07
2018-04-07T10:50:22.913Z,19.10
2018-04-07T10:51:22.902Z,19.22
2018-04-07T10:52:22.896Z,19.14
2018-04-07T10:53:22.871Z,19.06
2018-04-07T10:54:22.862Z,19.06
2018-04-07T10:55:22.840Z,18.88
2018-04-07T10:56:22.828Z,18.92
2018-04-07T10:57:22.814Z,18.81
2018-04-07T10:58:22.796Z,18.75
2018-04-07T10:59:22.780Z,18.85
2018-04-07T11:00:22.766Z,19.00
2018-04-07T11:01:22.754Z,18.99
2018-04-07T11:02:22.735Z,19.02
2018-04-07T11:03:22.724Z,19.18
2018-04-07T11:04:22.712Z,19.36
2018-04-07T11:05:22.696Z,19.48
2018-04-07T11:06:22.680Z,19.48
2018-04-07T11:07:22.664Z,19.51
2018-04-07T11:08:22.651Z,19.63
2018-04-07T11:09:22.634Z,19.68
2018-04-07T11:10:22.624Z,19.68
2018-04-07T11:11:22.657Z,19.68
2018-04-07T11:12:22.595Z,19.80
2018-04-07T11:13:22.579Z,19.94
2018-04-07T11:14:22.561Z,19.92
2018-04-07T11:15:22.553Z,20.03
2018-04-07T11:16:22.542Z,20.01
2018-04-07T11:17:22.569Z,20.11
2018-04-07T11:18:22.516Z,20.14
2018-04-07T11:19:22.494Z,20.24
2018-04-07T11:20:22.483Z,20.17
2018-04-07T11:21:22.776Z,20.13
2018-04-07T11:22:22.450Z,20.01
2018-04-07T11:23:22.440Z,19.96
2018-04-07T11:24:22.421Z,19.95
2018-04-07T11:25:22.412Z,19.96
2018-04-07T11:26:22.392Z,20.02
2018-04-07T11:27:22.379Z,20.06
2018-04-07T11:28:22.363Z,20.08
2018-04-07T11:29:22.352Z,20.01
2018-04-07T11:30:22.342Z,20.16
2018-04-07T11:31:22.320Z,20.13
2018-04-07T11:32:22.309Z,20.14
2018-04-07T11:33:22.295Z,20.29
2018-04-07T11:34:22.281Z,20.32
2018-04-07T11:35:22.275Z,20.43
2018-04-07T11:36:22.252Z,20.35
2018-04-07T11:37:22.245Z,20.39
2018-04-07T11:38:22.231Z,20.52
2018-04-07T11:39:22.211Z,20.54
2018-04-07T11:40:22.203Z,20.48
2018-04-07T11:41:22.184Z,20.41
2018-04-07T11:42:22.173Z,20.42
2018-04-07T11:43:22.161Z,20.57
2018-04-07T11:44:22.141Z,20.59
2018-04-07T11:45:22.140Z,20.64
2018-04-07T11:46:22.112Z,20.79
2018-04-07T11:47:22.102Z,20.80
2018-04-07T11:48:22.089Z,20.82
2018-04-07T11:49:22.073Z,20.80
2018-04-07T11:50:22.061Z,20.87
2018-04-07T11:51:22.060Z,20.82
2018-04-07T11:52:22.040Z,20.88
2018-04-07T11:53:22.018Z,20.87
2018-04-07T11:54:22.011Z,20.79
2018-04-07T11:55:21.994Z,20.79
2018-04-07T11:56:21.978Z,20.67
2018-04-07T11:57:21.973Z,20.58
2018-04-07T11:58:21.950Z,20.58
2018-04-07T11:59:21.935Z,20.67
2018-04-07T12:00:21.923Z,20.74
2018-04-07T12:01:21.934Z,20.79
2018-04-07T12:02:21.929Z,20.77
2018-04-07T12:03:21.884Z,20.94
2018-04-07T12:04:21.873Z,20.95
2018-04-07T12:05:21.870Z,21.03
2018-04-07T12:06:21.843Z,20.97
2018-04-07T12:07:21.840Z,20.98
2018-04-07T12:08:21.812Z,20.98
2018-04-07T12:09:21.800Z,20.97
2018-04-07T12:10:21.813Z,20.91
2018-04-07T12:11:21.775Z,20.88
2018-04-07T12:12:21.764Z,20.97
2018-04-07T12:13:21.751Z,20.95
2018-04-07T12:14:21.745Z,21.04
2018-04-07T12:15:21.748Z,21.06
2018-04-07T12:16:21.716Z,21.13
2018-04-07T12:17:21.694Z,21.12
2018-04-07T12:18:21.678Z,21.29
2018-04-07T12:19:21.674Z,21.32
2018-04-07T12:20:21.655Z,21.21
2018-04-07T12:21:21.640Z,21.22
2018-04-07T12:22:21.633Z,21.24
2018-04-07T12:23:21.619Z,21.17
2018-04-07T12:24:21.615Z,21.32
2018-04-07T12:25:21.585Z,21.27
2018-04-07T12:26:21.576Z,21.32
2018-04-07T12:27:21.568Z,21.35
2018-04-07T12:28:21.551Z,21.42
2018-04-07T12:29:21.537Z,21.43
2018-04-07T12:30:21.525Z,21.47
2018-04-07T12:31:21.508Z,21.58
2018-04-07T12:32:21.507Z,21.47
2018-04-07T12:33:21.482Z,21.44
2018-04-07T12:34:21.467Z,21.58
2018-04-07T12:35:21.463Z,21.62
2018-04-07T12:36:21.444Z,21.68
2018-04-07T12:37:21.429Z,21.90
2018-04-07T12:39:21.401Z,22.09
2018-04-07T12:40:21.396Z,22.02
2018-04-07T12:41:21.372Z,22.03
2018-04-07T12:42:21.362Z,21.83
2018-04-07T12:43:21.352Z,21.94
2018-04-07T12:44:21.337Z,21.98
2018-04-07T12:45:21.326Z,21.86
2018-04-07T12:46:21.315Z,21.88
2018-04-07T12:47:21.300Z,21.88
2018-04-07T12:48:21.286Z,21.84
2018-04-07T12:49:21.272Z,21.94
2018-04-07T12:50:21.257Z,22.02
2018-04-07T12:51:21.246Z,22.02
2018-04-07T12:52:21.227Z,22.00
2018-04-07T12:53:21.221Z,22.03
2018-04-07T12:54:21.213Z,22.10
2018-04-07T12:55:21.191Z,22.21
2018-04-07T12:56:21.181Z,22.14
2018-04-07T12:57:21.175Z,22.00
2018-04-07T12:58:21.156Z,22.05
2018-04-07T12:59:21.139Z,22.02
2018-04-07T13:00:21.126Z,22.07
2018-04-07T13:01:21.116Z,22.10
2018-04-07T13:02:21.100Z,22.15
2018-04-07T13:03:21.095Z,22.10
2018-04-07T13:04:21.072Z,22.22
2018-04-07T13:05:21.060Z,22.22
2018-04-07T13:06:21.054Z,22.15
2018-04-07T13:07:21.040Z,22.30
2018-04-07T13:08:21.025Z,22.21